Time;durP1;ratioP1;P1;durP2;ratioP2;P2;SDS_P1;SDS_P2;PMS_P1;PMS_P2;Temp;Humidity;BMP_temperature;BMP_pressure;BME280_temperature;BME280_humidity;BME280_pressure;Samples;Min_cycle;Max_cycle;Signal;HPM_P1;HPM_P2
2023/12/09 00:01:41;;;;;;;40.63;19.63;;;7.00;99.90;;;;;;5047357;28;20044;-82
2023/12/09 00:04:07;;;;;;;41.17;20.02;;;7.00;99.90;;;;;;5044208;28;20505;-81
2023/12/09 00:06:32;;;;;;;36.97;21.20;;;7.00;99.90;;;;;;5027510;28;20022;-81
2023/12/09 00:08:58;;;;;;;38.93;21.00;;;7.00;99.90;;;;;;5044321;28;20036;-83
2023/12/09 00:11:23;;;;;;;36.50;20.70;;;7.00;99.90;;;;;;5047684;28;20504;-82
2023/12/09 00:13:51;;;;;;;43.73;20.80;;;7.00;99.90;;;;;;5047143;28;20037;-82
2023/12/09 00:16:18;;;;;;;41.90;20.27;;;7.00;99.90;;;;;;5048455;28;20031;-81
2023/12/09 00:18:44;;;;;;;41.83;22.90;;;7.00;99.90;;;;;;5047511;28;20032;-81
2023/12/09 00:21:10;;;;;;;39.28;21.27;;;7.00;99.90;;;;;;5047842;28;20562;-81
2023/12/09 00:23:36;;;;;;;37.00;20.13;;;6.90;99.90;;;;;;5057676;28;20036;-82
2023/12/09 00:26:02;;;;;;;36.13;19.75;;;6.90;99.90;;;;;;5067513;28;20032;-82
2023/12/09 00:28:28;;;;;;;38.55;20.58;;;6.90;99.90;;;;;;5066015;28;20043;-81
2023/12/09 00:30:54;;;;;;;38.70;21.07;;;6.90;99.90;;;;;;5067405;28;20028;-81
2023/12/09 00:33:20;;;;;;;39.95;21.13;;;6.90;99.90;;;;;;5066792;28;20032;-82
2023/12/09 00:35:45;;;;;;;45.80;21.13;;;6.90;99.90;;;;;;5057068;28;20507;-81
2023/12/09 00:38:11;;;;;;;42.30;21.80;;;6.80;99.90;;;;;;5052245;28;20028;-81
2023/12/09 00:40:36;;;;;;;46.37;22.07;;;6.80;99.90;;;;;;5065873;28;20131;-81
2023/12/09 00:43:02;;;;;;;44.13;22.47;;;6.80;99.90;;;;;;5047342;28;20044;-81
2023/12/09 00:45:28;;;;;;;47.30;23.10;;;6.80;99.90;;;;;;5047262;28;20020;-82
2023/12/09 00:47:54;;;;;;;44.33;22.63;;;6.80;99.90;;;;;;5047265;28;20112;-82
2023/12/09 00:50:20;;;;;;;41.53;22.13;;;6.80;99.90;;;;;;5047573;28;20028;-81
2023/12/09 00:52:45;;;;;;;41.43;21.37;;;6.70;99.90;;;;;;5047057;28;20075;-82
2023/12/09 00:55:11;;;;;;;57.20;23.43;;;6.70;99.90;;;;;;5046820;28;20090;-81
2023/12/09 00:57:36;;;;;;;45.63;22.20;;;6.80;99.90;;;;;;5047121;28;20025;-81
2023/12/09 01:00:04;;;;;;;43.87;21.57;;;6.70;99.90;;;;;;5046991;28;20033;-82
2023/12/09 01:02:30;;;;;;;35.72;19.83;;;6.70;99.90;;;;;;5046638;28;20080;-82
2023/12/09 01:04:57;;;;;;;46.50;24.10;;;6.60;99.90;;;;;;5046866;28;20021;-82
2023/12/09 01:07:23;;;;;;;48.78;24.98;;;6.60;99.90;;;;;;5047432;28;20025;-82
2023/12/09 01:09:48;;;;;;;54.63;25.17;;;6.50;99.90;;;;;;5047239;28;20147;-81
2023/12/09 01:12:14;;;;;;;48.17;23.77;;;6.50;99.90;;;;;;5046843;28;20025;-82
2023/12/09 01:14:40;;;;;;;49.60;23.63;;;6.40;99.90;;;;;;5046096;28;20107;-81
2023/12/09 01:17:06;;;;;;;53.93;24.17;;;6.30;99.90;;;;;;5046436;28;20073;-82
2023/12/09 01:19:32;;;;;;;61.17;25.80;;;6.20;99.90;;;;;;5046771;28;20043;-81
2023/12/09 01:21:57;;;;;;;55.92;24.85;;;6.20;99.90;;;;;;5050398;28;20021;-82
2023/12/09 01:24:23;;;;;;;62.30;25.97;;;6.20;99.90;;;;;;5067528;28;20150;-82
2023/12/09 01:26:49;;;;;;;62.90;25.80;;;6.20;99.90;;;;;;5071384;28;20025;-82
2023/12/09 01:29:14;;;;;;;61.20;26.30;;;6.30;99.90;;;;;;5071346;28;20877;-82
2023/12/09 01:31:40;;;;;;;61.03;25.67;;;6.30;99.90;;;;;;5070486;28;20032;-82
2023/12/09 01:34:05;;;;;;;52.13;23.87;;;6.20;99.90;;;;;;5069094;28;20032;-83
2023/12/09 01:36:31;;;;;;;58.20;24.43;;;6.30;99.90;;;;;;5052462;28;20040;-83
2023/12/09 01:38:57;;;;;;;62.37;24.47;;;6.30;99.90;;;;;;5053816;28;20543;-83
2023/12/09 01:41:22;;;;;;;56.10;24.50;;;6.40;99.90;;;;;;5052533;28;20025;-83
2023/12/09 01:43:48;;;;;;;52.53;23.53;;;6.40;99.90;;;;;;5052739;28;20037;-82
2023/12/09 01:46:16;;;;;;;49.92;22.55;;;6.50;99.90;;;;;;5053948;28;20481;-82
2023/12/09 01:48:41;;;;;;;55.78;24.77;;;6.50;99.90;;;;;;5051767;28;20080;-82
2023/12/09 01:51:08;;;;;;;50.38;24.10;;;6.40;99.90;;;;;;5048587;28;20048;-81
2023/12/09 01:53:35;;;;;;;53.67;23.75;;;6.50;99.90;;;;;;5048657;28;20028;-81
2023/12/09 01:56:05;;;;;;;49.58;23.85;;;6.50;99.90;;;;;;5049436;28;20165;-81
2023/12/09 01:58:33;;;;;;;48.67;22.23;;;6.40;99.90;;;;;;5049474;28;20032;-81
2023/12/09 02:00:58;;;;;;;59.20;22.20;;;6.40;99.90;;;;;;5050220;28;20033;-83
2023/12/09 02:03:24;;;;;;;51.53;22.47;;;6.40;99.90;;;;;;5050766;28;20448;-82
2023/12/09 02:05:49;;;;;;;50.70;22.27;;;6.30;99.90;;;;;;5050933;28;20021;-81
2023/12/09 02:08:15;;;;;;;49.80;22.53;;;6.30;99.90;;;;;;5053138;28;20031;-83
2023/12/09 02:10:42;;;;;;;46.95;21.98;;;6.40;99.90;;;;;;5048994;28;20056;-82
2023/12/09 02:13:23;;;;;;;53.67;23.45;;;6.30;99.90;;;;;;5051860;28;20091;-82
2023/12/09 02:16:08;;;;;;;49.60;22.85;;;6.30;99.90;;;;;;5050614;28;20037;-81
2023/12/09 02:18:35;;;;;;;44.38;22.50;;;6.30;99.90;;;;;;5049875;28;20021;-81
2023/12/09 02:21:01;;;;;;;47.80;22.55;;;6.30;99.90;;;;;;5049723;28;20029;-81
2023/12/09 02:23:26;;;;;;;51.83;23.53;;;6.20;99.90;;;;;;5058106;28;20016;-83
2023/12/09 02:26:01;;;;;;;55.73;23.83;;;6.30;99.90;;;;;;5068449;28;20016;-82
2023/12/09 02:28:29;;;;;;;42.67;21.30;;;6.10;99.90;;;;;;5069172;28;20044;-82
2023/12/09 02:30:57;;;;;;;52.22;23.48;;;6.00;99.90;;;;;;5069528;28;20484;-82
2023/12/09 02:33:24;;;;;;;42.92;21.17;;;6.00;99.90;;;;;;5060591;28;20102;-82
2023/12/09 02:35:51;;;;;;;51.55;22.30;;;5.90;99.90;;;;;;5049667;28;20025;-82
2023/12/09 02:38:19;;;;;;;48.33;21.17;;;5.90;99.90;;;;;;5069027;28;20017;-82
2023/12/09 02:40:46;;;;;;;46.72;22.15;;;5.90;99.90;;;;;;5059492;28;20444;-82
2023/12/09 02:43:13;;;;;;;45.53;21.48;;;5.80;99.90;;;;;;5050416;28;20531;-82
2023/12/09 02:45:38;;;;;;;60.42;22.35;;;5.80;99.90;;;;;;5049958;28;20029;-82
2023/12/09 02:48:04;;;;;;;50.50;21.40;;;5.70;99.90;;;;;;5048554;28;20439;-82
2023/12/09 02:50:30;;;;;;;74.10;21.85;;;5.70;99.90;;;;;;5048745;28;20037;-82
2023/12/09 02:52:56;;;;;;;36.72;18.85;;;5.60;99.90;;;;;;5048745;28;20063;-82
2023/12/09 02:55:22;;;;;;;46.47;19.70;;;5.60;99.90;;;;;;5049116;28;20095;-82
2023/12/09 02:57:47;;;;;;;46.13;23.20;;;5.50;99.90;;;;;;5048832;28;20025;-81
2023/12/09 03:00:13;;;;;;;44.53;20.60;;;5.60;99.90;;;;;;5048832;28;20043;-82
2023/12/09 03:02:39;;;;;;;52.00;21.63;;;5.60;99.90;;;;;;5048446;28;20031;-82
2023/12/09 03:05:05;;;;;;;47.58;22.38;;;5.70;99.90;;;;;;5048537;28;20111;-82
2023/12/09 03:07:31;;;;;;;49.95;22.50;;;5.70;99.90;;;;;;5048896;28;20461;-82
2023/12/09 03:09:56;;;;;;;53.30;23.13;;;5.80;99.90;;;;;;5048673;28;20045;-83
2023/12/09 03:12:22;;;;;;;66.93;24.57;;;5.90;99.90;;;;;;5048862;28;20096;-82
2023/12/09 03:14:47;;;;;;;90.57;27.37;;;6.00;99.90;;;;;;5048620;28;20041;-82
2023/12/09 03:17:13;;;;;;;116.47;29.03;;;6.10;99.90;;;;;;5048594;28;20032;-83
2023/12/09 03:19:38;;;;;;;193.80;27.43;;;6.10;99.90;;;;;;5048334;28;20044;-82
2023/12/09 03:22:04;;;;;;;133.17;24.70;;;6.10;99.90;;;;;;5048358;28;20115;-82
2023/12/09 03:24:30;;;;;;;114.50;24.67;;;6.00;99.90;;;;;;5065283;28;20032;-82
2023/12/09 03:26:55;;;;;;;94.73;24.27;;;6.00;99.90;;;;;;5066830;28;20042;-83
2023/12/09 03:29:22;;;;;;;67.27;22.57;;;6.10;99.90;;;;;;5068408;28;20480;-83
2023/12/09 03:31:48;;;;;;;72.32;22.95;;;6.10;99.90;;;;;;5059465;28;20044;-82
2023/12/09 03:34:14;;;;;;;86.80;24.65;;;6.10;99.90;;;;;;5047977;28;20029;-81
2023/12/09 03:36:40;;;;;;;;;;;6.10;99.90;;;;;;5048362;28;20396;-82
2023/12/09 03:39:06;;;;;;;105.93;23.70;;;6.10;99.90;;;;;;5047786;28;19919;-81
2023/12/09 03:41:35;;;;;;;92.63;23.75;;;6.10;99.90;;;;;;5046915;28;20029;-81
2023/12/09 03:44:01;;;;;;;65.15;22.27;;;6.00;99.90;;;;;;5048638;28;20041;-81
2023/12/09 03:46:27;;;;;;;57.70;22.88;;;6.00;99.90;;;;;;5048318;28;20025;-82
2023/12/09 03:48:53;;;;;;;50.03;22.50;;;5.90;99.90;;;;;;5048382;28;20041;-83
2023/12/09 03:51:18;;;;;;;48.57;22.77;;;5.90;99.90;;;;;;5047877;28;20791;-82
2023/12/09 03:53:44;;;;;;;45.90;21.50;;;5.90;99.90;;;;;;5048106;28;20146;-82
2023/12/09 03:56:11;;;;;;;72.50;20.30;;;5.80;99.90;;;;;;5033183;28;20603;-82
2023/12/09 03:58:37;;;;;;;43.00;18.88;;;5.60;99.90;;;;;;5038085;28;20055;-83
2023/12/09 04:01:04;;;;;;;51.15;18.67;;;5.50;99.90;;;;;;5047589;28;20035;-83
2023/12/09 04:03:30;;;;;;;38.67;17.73;;;5.40;99.90;;;;;;5046868;28;20029;-82
2023/12/09 04:05:55;;;;;;;41.20;18.23;;;5.40;99.90;;;;;;5039242;28;20036;-83
2023/12/09 04:08:21;;;;;;;44.53;19.13;;;5.30;99.90;;;;;;5030656;28;20292;-82
2023/12/09 04:10:47;;;;;;;46.57;18.93;;;5.30;99.90;;;;;;5042704;28;20034;-82
2023/12/09 04:13:12;;;;;;;48.70;20.98;;;5.20;99.90;;;;;;5034917;28;20516;-83
2023/12/09 04:15:38;;;;;;;38.80;18.40;;;5.10;99.90;;;;;;5027621;28;20068;-82
2023/12/09 04:18:05;;;;;;;42.78;18.35;;;5.10;99.90;;;;;;5029556;28;20520;-82
2023/12/09 04:20:30;;;;;;;;;;;5.10;99.90;;;;;;5027392;28;20026;-82
2023/12/09 04:22:56;;;;;;;41.28;16.92;;;5.00;99.90;;;;;;5036436;28;19911;-82
2023/12/09 04:25:22;;;;;;;50.77;17.10;;;5.00;99.90;;;;;;5067717;28;20032;-82
2023/12/09 04:27:48;;;;;;;38.67;17.73;;;4.90;99.90;;;;;;5067509;28;20036;-83
2023/12/09 04:30:14;;;;;;;39.45;18.23;;;4.90;99.90;;;;;;5056490;28;20088;-82
2023/12/09 04:32:39;;;;;;;79.55;21.38;;;4.90;99.90;;;;;;5057129;28;20032;-82
2023/12/09 04:35:06;;;;;;;81.30;22.00;;;5.00;99.90;;;;;;5047192;28;20036;-82
2023/12/09 04:37:31;;;;;;;;;;;5.00;99.90;;;;;;5048033;28;20017;-82
2023/12/09 04:39:57;;;;;;;83.95;21.00;;;5.10;99.90;;;;;;5047390;28;20316;-81
2023/12/09 04:42:22;;;;;;;91.17;21.53;;;5.00;99.90;;;;;;5047553;28;20074;-81
2023/12/09 04:44:48;;;;;;;109.67;24.17;;;5.10;99.90;;;;;;5046497;28;20025;-81
2023/12/09 04:47:14;;;;;;;177.40;24.00;;;5.10;99.90;;;;;;5047201;28;20095;-82
2023/12/09 04:49:39;;;;;;;138.77;24.17;;;5.10;99.90;;;;;;5046997;28;20052;-81
2023/12/09 04:52:05;;;;;;;61.30;20.87;;;5.10;99.90;;;;;;5046998;28;20021;-81
2023/12/09 04:54:31;;;;;;;68.47;23.65;;;5.10;99.90;;;;;;5047812;28;20043;-82
2023/12/09 04:56:56;;;;;;;80.23;22.17;;;5.20;99.90;;;;;;5051153;28;20032;-82
2023/12/09 04:59:23;;;;;;;138.73;26.87;;;5.20;99.90;;;;;;5051133;28;20033;-81
2023/12/09 05:01:49;;;;;;;61.03;20.73;;;5.20;99.90;;;;;;5050781;28;20055;-81
2023/12/09 05:04:16;;;;;;;60.13;22.33;;;5.20;99.90;;;;;;5050913;28;20040;-82
2023/12/09 05:06:43;;;;;;;61.53;21.17;;;5.30;99.90;;;;;;5051034;28;20437;-81
2023/12/09 05:09:10;;;;;;;57.45;22.67;;;5.20;99.90;;;;;;5050817;28;20039;-81
2023/12/09 05:11:36;;;;;;;50.83;21.30;;;5.30;99.90;;;;;;5051032;28;20025;-81
2023/12/09 05:14:01;;;;;;;68.63;21.10;;;5.30;99.90;;;;;;5050710;28;20507;-81
2023/12/09 05:16:27;;;;;;;62.93;21.27;;;5.30;99.90;;;;;;5050822;28;20059;-81
2023/12/09 05:18:53;;;;;;;75.45;22.45;;;5.30;99.90;;;;;;5051047;28;20017;-80
2023/12/09 05:21:19;;;;;;;103.55;20.35;;;5.30;99.90;;;;;;5049845;28;20128;-80
2023/12/09 05:23:46;;;;;;;100.82;19.67;;;5.20;99.90;;;;;;5052915;28;20921;-80
2023/12/09 05:26:22;;;;;;;;;;;5.10;99.90;;;;;;5071388;28;20058;-80
2023/12/09 05:28:48;;;;;;;56.40;18.02;;;5.10;99.90;;;;;;5058279;28;19923;-81
2023/12/09 05:31:13;;;;;;;45.70;18.65;;;5.00;99.90;;;;;;5049859;28;20029;-82
2023/12/09 05:33:40;;;;;;;37.07;18.60;;;5.10;99.90;;;;;;5049496;28;20425;-81
2023/12/09 05:36:06;;;;;;;26.77;13.93;;;5.20;99.90;;;;;;5049923;28;20037;-82
2023/12/09 05:38:32;;;;;;;32.08;14.77;;;5.10;99.90;;;;;;5049652;28;20036;-82
2023/12/09 05:40:57;;;;;;;37.60;16.80;;;5.10;99.90;;;;;;5050227;28;20032;-82
2023/12/09 05:43:23;;;;;;;45.20;16.20;;;5.10;99.90;;;;;;5050496;28;20493;-81
2023/12/09 05:45:48;;;;;;;35.07;16.20;;;5.10;99.90;;;;;;5050068;28;20033;-83
2023/12/09 05:48:14;;;;;;;28.03;14.73;;;5.10;99.90;;;;;;5049762;28;20033;-81
2023/12/09 05:50:39;;;;;;;33.57;16.07;;;5.20;99.90;;;;;;5049856;28;20024;-83
2023/12/09 05:53:05;;;;;;;32.07;15.23;;;5.30;99.90;;;;;;5049600;28;20024;-82
2023/12/09 05:55:31;;;;;;;31.17;15.97;;;5.30;99.90;;;;;;5049624;28;20500;-82
2023/12/09 05:57:56;;;;;;;32.83;15.23;;;5.30;99.90;;;;;;5049689;28;20024;-82
2023/12/09 06:00:22;;;;;;;30.77;15.60;;;5.30;99.90;;;;;;5049914;28;20071;-82
2023/12/09 06:02:47;;;;;;;38.97;16.37;;;5.40;99.90;;;;;;5049032;28;20052;-81
2023/12/09 06:05:13;;;;;;;29.57;14.97;;;5.40;99.90;;;;;;5041367;28;20037;-83
2023/12/09 06:07:39;;;;;;;31.10;14.20;;;5.30;99.90;;;;;;5028036;28;20030;-82
2023/12/09 06:10:05;;;;;;;33.23;16.03;;;5.20;99.90;;;;;;5028999;28;20037;-81
2023/12/09 06:12:31;;;;;;;;;;;5.20;99.90;;;;;;5029778;28;20603;-82
2023/12/09 06:14:57;;;;;;;39.97;16.08;;;5.10;99.90;;;;;;5029464;28;19912;-82
2023/12/09 06:17:23;;;;;;;36.40;16.50;;;5.20;99.90;;;;;;5043676;28;20404;-83
2023/12/09 06:19:48;;;;;;;46.37;16.00;;;5.20;99.90;;;;;;5049896;28;20037;-82
2023/12/09 06:22:14;;;;;;;43.37;17.70;;;5.30;99.90;;;;;;5049770;28;20108;-82
2023/12/09 06:24:39;;;;;;;41.90;15.57;;;5.40;99.90;;;;;;5068110;28;20063;-81
2023/12/09 06:27:05;;;;;;;32.20;15.70;;;5.40;99.90;;;;;;5069622;28;20025;-82
2023/12/09 06:29:31;;;;;;;37.35;16.80;;;5.40;99.90;;;;;;5069366;28;20484;-82
2023/12/09 06:31:57;;;;;;;43.13;16.60;;;5.40;99.90;;;;;;5069335;28;20140;-81
2023/12/09 06:34:23;;;;;;;43.97;16.52;;;5.40;99.90;;;;;;5066252;28;20021;-81
2023/12/09 06:36:48;;;;;;;45.37;18.27;;;5.40;99.90;;;;;;5069309;28;20024;-81
2023/12/09 06:39:14;;;;;;;42.40;17.87;;;5.40;99.90;;;;;;5069103;28;20511;-80
2023/12/09 06:41:40;;;;;;;49.93;20.90;;;5.40;99.90;;;;;;5068813;28;20021;-81
2023/12/09 06:44:06;;;;;;;45.53;17.67;;;5.40;99.90;;;;;;5056634;28;20060;-82
2023/12/09 06:46:31;;;;;;;55.30;17.87;;;5.40;99.90;;;;;;5048978;28;20069;-81
2023/12/09 06:48:57;;;;;;;50.23;18.97;;;5.40;99.90;;;;;;5049026;28;20032;-81
2023/12/09 06:51:22;;;;;;;55.67;19.73;;;5.40;99.90;;;;;;5049369;28;20401;-81
2023/12/09 06:53:48;;;;;;;49.33;18.60;;;5.30;99.90;;;;;;5049073;28;20118;-80
2023/12/09 06:56:21;;;;;;;46.60;19.03;;;5.20;99.90;;;;;;5047348;28;20032;-80
2023/12/09 06:58:47;;;;;;;49.25;17.83;;;5.20;99.90;;;;;;5048191;28;20017;-80
2023/12/09 07:01:23;;;;;;;56.50;18.77;;;5.20;99.90;;;;;;5048383;28;20029;-80
2023/12/09 07:03:49;;;;;;;47.35;18.17;;;5.10;99.90;;;;;;5048688;28;20508;-81
2023/12/09 07:06:26;;;;;;;41.45;17.80;;;5.10;99.90;;;;;;5048133;28;20520;-80
2023/12/09 07:08:52;;;;;;;50.10;17.05;;;5.10;99.90;;;;;;5049241;28;20539;-80
2023/12/09 07:11:20;;;;;;;45.10;16.25;;;5.10;99.90;;;;;;5049171;28;20024;-81
2023/12/09 07:13:46;;;;;;;54.45;18.45;;;5.00;99.90;;;;;;5048542;28;20140;-83
2023/12/09 07:16:13;;;;;;;65.93;19.02;;;5.10;99.90;;;;;;5048221;28;20100;-82
2023/12/09 07:18:46;;;;;;;48.65;17.73;;;5.10;99.90;;;;;;5048150;28;20025;-82
2023/12/09 07:21:12;;;;;;;63.08;18.20;;;5.20;99.90;;;;;;5038854;28;20089;-80
2023/12/09 07:23:38;;;;;;;47.80;17.17;;;5.20;99.90;;;;;;5042561;28;20028;-80
2023/12/09 07:26:04;;;;;;;46.17;17.60;;;5.30;99.90;;;;;;5036290;28;20040;-80
2023/12/09 07:28:30;;;;;;;55.42;18.75;;;5.30;99.90;;;;;;5035854;28;20540;-81
2023/12/09 07:30:56;;;;;;;57.43;20.17;;;5.30;99.90;;;;;;5036969;28;20105;-81
2023/12/09 07:33:23;;;;;;;;;;;5.30;99.90;;;;;;5038726;28;20029;-81
2023/12/09 07:35:48;;;;;;;68.60;20.77;;;5.40;99.90;;;;;;5038795;28;19920;-81
2023/12/09 07:38:14;;;;;;;73.72;22.13;;;5.30;99.90;;;;;;5037811;28;20029;-81
2023/12/09 07:40:40;;;;;;;51.33;19.73;;;5.30;99.90;;;;;;5034073;28;20060;-81
2023/12/09 07:43:06;;;;;;;50.47;19.53;;;5.30;99.90;;;;;;5030869;28;20397;-81
2023/12/09 07:45:33;;;;;;;51.05;18.60;;;5.30;99.90;;;;;;5037647;28;20029;-79
2023/12/09 07:47:58;;;;;;;49.30;17.65;;;5.30;99.90;;;;;;5037841;28;20568;-80
2023/12/09 07:50:24;;;;;;;44.38;17.13;;;5.30;99.90;;;;;;5033474;28;20039;-80
2023/12/09 07:52:50;;;;;;;37.73;16.17;;;5.40;99.90;;;;;;5035962;28;20037;-80
2023/12/09 07:55:16;;;;;;;37.80;15.47;;;5.40;99.90;;;;;;5034155;28;20918;-81
2023/12/09 07:57:41;;;;;;;38.45;15.27;;;5.40;99.90;;;;;;5035158;28;20576;-81
2023/12/09 08:00:08;;;;;;;32.85;14.23;;;5.50;99.90;;;;;;5035949;28;20497;-81
2023/12/09 08:02:34;;;;;;;32.63;14.13;;;5.60;99.90;;;;;;5035802;28;20084;-81
2023/12/09 08:04:59;;;;;;;30.02;13.90;;;5.60;99.90;;;;;;5037096;28;20041;-80
2023/12/09 08:07:25;;;;;;;32.50;13.27;;;5.60;99.90;;;;;;5037716;28;20025;-80
2023/12/09 08:09:50;;;;;;;31.83;16.10;;;5.70;99.90;;;;;;5036686;28;20330;-80
2023/12/09 08:12:16;;;;;;;42.50;18.30;;;5.70;99.90;;;;;;5029561;28;20055;-81
2023/12/09 08:14:42;;;;;;;40.73;18.27;;;5.70;99.90;;;;;;5040759;28;20037;-81
2023/12/09 08:17:07;;;;;;;39.93;17.57;;;5.70;99.90;;;;;;5038289;28;20032;-80
2023/12/09 08:19:33;;;;;;;38.50;17.67;;;5.70;99.90;;;;;;5043486;28;20516;-80
2023/12/09 08:21:59;;;;;;;37.55;17.40;;;5.70;99.90;;;;;;5037005;28;20083;-80
2023/12/09 08:24:25;;;;;;;39.20;16.45;;;5.70;99.90;;;;;;5040782;28;20383;-81
2023/12/09 08:26:51;;;;;;;39.27;15.27;;;5.80;99.90;;;;;;5037394;28;20555;-78
2023/12/09 08:29:16;;;;;;;41.95;16.42;;;5.80;99.90;;;;;;5037866;28;20473;-79
2023/12/09 08:31:46;;;;;;;36.67;14.83;;;5.80;99.90;;;;;;5035569;28;20037;-78
2023/12/09 08:34:12;;;;;;;32.90;14.55;;;5.90;99.90;;;;;;5039595;28;20034;-77
2023/12/09 08:36:38;;;;;;;35.25;16.05;;;5.90;99.90;;;;;;5039329;28;20112;-78
2023/12/09 08:39:04;;;;;;;36.03;15.13;;;5.90;99.90;;;;;;5041597;28;20125;-79
2023/12/09 08:41:29;;;;;;;32.80;14.53;;;6.00;99.90;;;;;;5042104;28;20029;-75
2023/12/09 08:43:55;;;;;;;33.13;14.60;;;6.00;99.90;;;;;;5038570;28;20116;-76
2023/12/09 08:46:21;;;;;;;34.88;15.25;;;6.00;99.90;;;;;;5044900;28;20639;-76
2023/12/09 08:48:47;;;;;;;30.80;14.07;;;6.10;99.90;;;;;;5047469;28;20052;-76
2023/12/09 08:51:12;;;;;;;34.88;15.57;;;6.10;99.90;;;;;;5041822;28;20033;-76
2023/12/09 08:53:38;;;;;;;42.40;19.10;;;6.10;99.90;;;;;;5043492;28;20044;-76
2023/12/09 08:56:04;;;;;;;44.35;18.40;;;6.10;99.90;;;;;;5045404;28;20358;-78
2023/12/09 08:58:30;;;;;;;42.97;18.17;;;6.10;99.90;;;;;;5042023;28;20125;-77
2023/12/09 09:00:55;;;;;;;45.33;18.70;;;6.20;99.90;;;;;;5039100;28;20124;-76
2023/12/09 09:03:21;;;;;;;35.93;17.13;;;6.10;99.90;;;;;;5045617;28;21484;-76
2023/12/09 09:05:47;;;;;;;34.83;16.57;;;6.20;99.90;;;;;;5040870;28;20441;-76
2023/12/09 09:08:12;;;;;;;38.83;15.23;;;6.30;99.90;;;;;;5043689;28;20096;-76
2023/12/09 09:10:38;;;;;;;35.70;15.30;;;6.20;99.90;;;;;;5038651;28;20108;-76
2023/12/09 09:13:03;;;;;;;28.17;13.57;;;6.30;99.90;;;;;;5040418;28;20025;-76
2023/12/09 09:15:30;;;;;;;29.03;13.20;;;6.30;99.90;;;;;;5040132;28;20037;-76
2023/12/09 09:17:56;;;;;;;31.33;12.63;;;6.40;99.90;;;;;;5047639;28;20477;-75
2023/12/09 09:20:22;;;;;;;25.03;10.70;;;6.40;99.90;;;;;;5042638;28;20044;-78
2023/12/09 09:22:49;;;;;;;23.75;11.65;;;6.50;99.90;;;;;;5041400;28;20712;-80
2023/12/09 09:25:17;;;;;;;20.83;10.52;;;6.60;99.90;;;;;;5036329;28;20037;-79
2023/12/09 09:27:43;;;;;;;24.77;10.30;;;6.70;99.90;;;;;;5043838;28;20021;-76
2023/12/09 09:30:09;;;;;;;21.87;10.40;;;6.80;99.90;;;;;;5038894;28;20059;-81
2023/12/09 09:32:34;;;;;;;17.45;10.35;;;6.90;99.90;;;;;;5032912;28;20025;-76
2023/12/09 09:35:00;;;;;;;19.13;9.07;;;7.10;99.90;;;;;;5037640;28;20034;-81
2023/12/09 09:37:27;;;;;;;11.63;6.83;;;7.40;99.90;;;;;;5030556;28;20477;-81
2023/12/09 09:39:53;;;;;;;;;;;7.60;99.90;;;;;;5041451;28;20026;-80
2023/12/09 09:42:42;;;;;;;15.73;6.93;;;7.70;99.90;;;;;;5038154;28;20108;-79
2023/12/09 09:45:08;;;;;;;12.63;7.13;;;7.70;99.90;;;;;;5038006;28;20603;-79
2023/12/09 09:47:37;;;;;;;14.75;7.35;;;7.80;99.90;;;;;;5030549;28;20037;-79
2023/12/09 09:50:06;;;;;;;16.75;6.97;;;7.80;99.90;;;;;;5040199;28;20528;-79
2023/12/09 09:52:35;;;;;;;17.13;7.13;;;7.80;99.90;;;;;;5041909;28;20037;-79
2023/12/09 09:55:02;;;;;;;13.95;7.60;;;7.90;99.90;;;;;;5038046;28;20041;-79
2023/12/09 09:57:28;;;;;;;16.60;8.20;;;8.00;99.90;;;;;;5043268;28;20036;-79
2023/12/09 09:59:56;;;;;;;21.70;9.20;;;8.10;99.90;;;;;;5037084;28;20087;-80
2023/12/09 10:02:25;;;;;;;21.73;9.50;;;8.20;99.90;;;;;;5040893;28;20581;-79
2023/12/09 10:04:50;;;;;;;20.55;9.52;;;8.20;99.90;;;;;;5039007;28;20112;-80
2023/12/09 10:07:17;;;;;;;16.30;8.07;;;8.20;99.90;;;;;;5043580;28;20104;-80
2023/12/09 10:09:42;;;;;;;16.80;8.43;;;8.20;99.90;;;;;;5041718;28;20307;-79
2023/12/09 10:12:08;;;;;;;18.30;9.27;;;8.20;99.90;;;;;;5039774;28;20408;-79
2023/12/09 10:14:34;;;;;;;19.10;8.95;;;8.30;99.90;;;;;;5038651;28;20025;-80
2023/12/09 10:17:00;;;;;;;15.30;8.77;;;8.30;99.90;;;;;;5038839;28;20032;-80
2023/12/09 10:19:26;;;;;;;12.98;7.93;;;8.30;99.90;;;;;;5036351;28;20370;-80
2023/12/09 10:21:51;;;;;;;21.87;8.87;;;8.30;99.90;;;;;;5038580;28;20434;-79
2023/12/09 10:24:17;;;;;;;19.30;7.50;;;8.30;99.90;;;;;;5041973;28;20048;-79
2023/12/09 10:26:43;;;;;;;18.27;7.03;;;8.30;99.90;;;;;;5039264;28;20029;-76
2023/12/09 10:29:10;;;;;;;14.00;6.15;;;8.40;99.90;;;;;;5039223;28;20052;-78
2023/12/09 10:31:36;;;;;;;12.93;5.90;;;8.40;99.90;;;;;;5037850;28;20385;-77
2023/12/09 10:34:03;;;;;;;10.48;5.85;;;8.50;99.90;;;;;;5041865;28;20044;-77
2023/12/09 10:36:31;;;;;;;14.57;5.97;;;8.50;99.90;;;;;;5038506;28;20129;-77
2023/12/09 10:38:57;;;;;;;13.05;5.18;;;8.50;99.90;;;;;;5047490;28;20044;-79
2023/12/09 10:41:26;;;;;;;13.05;6.90;;;8.50;99.90;;;;;;5037534;28;20026;-78
2023/12/09 10:43:56;;;;;;;12.43;5.28;;;8.50;99.90;;;;;;5037886;28;20549;-78
2023/12/09 10:46:22;;;;;;;10.35;5.50;;;8.50;99.90;;;;;;5044130;28;20018;-78
2023/12/09 10:48:47;;;;;;;10.10;4.95;;;8.50;99.90;;;;;;5039325;28;20388;-78
2023/12/09 10:51:13;;;;;;;9.55;4.55;;;8.40;99.90;;;;;;5055260;28;20044;-78
2023/12/09 10:53:41;;;;;;;9.27;4.22;;;8.50;99.90;;;;;;5037592;28;20076;-78
2023/12/09 10:56:08;;;;;;;9.68;4.03;;;8.60;99.90;;;;;;5036862;28;20025;-78
2023/12/09 10:58:36;;;;;;;11.25;3.80;;;8.60;99.90;;;;;;5036781;28;20599;-78
2023/12/09 11:01:02;;;;;;;9.75;3.75;;;8.80;99.90;;;;;;5036874;28;20032;-78
2023/12/09 11:03:28;;;;;;;9.20;3.03;;;8.90;99.90;;;;;;5038152;28;20033;-78
2023/12/09 11:05:57;;;;;;;6.03;3.10;;;8.90;99.90;;;;;;5037828;28;20041;-78
2023/12/09 11:08:28;;;;;;;5.72;2.50;;;8.90;99.90;;;;;;5037751;28;20124;-78
2023/12/09 11:10:57;;;;;;;7.40;2.38;;;8.80;99.90;;;;;;5051911;28;20029;-77
2023/12/09 11:13:29;;;;;;;8.20;3.10;;;8.80;99.90;;;;;;5032565;28;20029;-78
2023/12/09 11:16:18;;;;;;;5.22;3.20;;;8.80;99.90;;;;;;5041447;28;20030;-78
2023/12/09 11:18:55;;;;;;;5.30;2.67;;;8.70;99.90;;;;;;5049729;28;20029;-80
2023/12/09 11:21:26;;;;;;;6.88;2.72;;;8.80;99.90;;;;;;5040637;28;20064;-79
2023/12/09 11:23:53;;;;;;;7.15;2.25;;;8.80;99.90;;;;;;5036752;28;20040;-78
2023/12/09 11:26:30;;;;;;;6.47;2.45;;;8.90;99.90;;;;;;5048511;28;20024;-79
2023/12/09 11:29:07;;;;;;;9.43;2.60;;;8.90;99.90;;;;;;5050437;28;20036;-78
2023/12/09 11:31:37;;;;;;;5.75;2.20;;;8.90;99.90;;;;;;5052095;28;20040;-79
2023/12/09 11:34:06;;;;;;;10.82;2.70;;;8.90;99.90;;;;;;5041494;28;20041;-81
2023/12/09 11:36:38;;;;;;;5.68;2.25;;;8.90;99.90;;;;;;5035243;28;20409;-79
2023/12/09 11:39:06;;;;;;;5.88;2.33;;;8.90;99.90;;;;;;5030506;28;20549;-77
2023/12/09 11:41:33;;;;;;;7.65;2.42;;;8.90;99.90;;;;;;5036281;28;20032;-80
2023/12/09 11:44:03;;;;;;;6.03;2.60;;;8.80;99.90;;;;;;5043024;28;20029;-80
2023/12/09 11:46:34;;;;;;;5.72;2.00;;;8.80;99.90;;;;;;5034288;28;20033;-81
2023/12/09 11:49:00;;;;;;;12.82;1.88;;;8.80;99.90;;;;;;5050904;28;20043;-80
2023/12/09 11:51:28;;;;;;;5.88;1.92;;;8.80;99.90;;;;;;5048631;28;20032;-78
2023/12/09 11:54:02;;;;;;;8.50;1.92;;;8.80;99.90;;;;;;5047902;28;20037;-79
2023/12/09 11:56:28;;;;;;;9.85;2.15;;;8.80;99.90;;;;;;5036953;28;20488;-78
2023/12/09 11:58:55;;;;;;;10.30;2.42;;;8.80;99.90;;;;;;5028867;28;20056;-79
2023/12/09 12:01:21;;;;;;;11.48;2.83;;;8.80;99.90;;;;;;5040414;28;20157;-78
2023/12/09 12:03:48;;;;;;;7.93;2.35;;;8.80;99.90;;;;;;5032638;28;20056;-80
2023/12/09 12:06:17;;;;;;;;;;;8.80;99.90;;;;;;5043172;28;20025;-79
2023/12/09 12:08:43;;;;;;;14.05;2.40;;;8.80;99.90;;;;;;5028177;28;20016;-79
2023/12/09 12:11:10;;;;;;;8.32;2.28;;;8.80;99.90;;;;;;5037494;28;20072;-79
2023/12/09 12:13:36;;;;;;;9.43;2.58;;;8.90;99.90;;;;;;5033985;28;20029;-79
2023/12/09 12:16:02;;;;;;;6.55;2.25;;;8.90;99.90;;;;;;5033165;28;20456;-79
2023/12/09 12:18:28;;;;;;;3.58;1.85;;;8.80;99.90;;;;;;5041074;28;20029;-79
2023/12/09 12:20:54;;;;;;;;;;;8.80;99.90;;;;;;5037084;28;20060;-80
2023/12/09 12:23:20;;;;;;;6.22;2.33;;;8.80;99.90;;;;;;5038028;28;19913;-80
2023/12/09 12:25:50;;;;;;;10.03;2.07;;;8.80;99.90;;;;;;5040265;28;20575;-84
2023/12/09 12:28:16;;;;;;;5.57;2.35;;;8.70;99.90;;;;;;5043805;28;20500;-81
2023/12/09 12:30:42;;;;;;;5.18;2.10;;;8.70;99.90;;;;;;5050735;28;20103;-81
2023/12/09 12:33:08;;;;;;;10.48;2.13;;;8.70;99.90;;;;;;5043797;28;20430;-81
2023/12/09 12:35:34;;;;;;;5.13;2.17;;;8.60;99.90;;;;;;5040019;28;20060;-80
2023/12/09 12:37:59;;;;;;;5.80;2.77;;;8.50;99.90;;;;;;5032623;28;20036;-80
2023/12/09 12:40:26;;;;;;;6.23;2.50;;;8.60;99.90;;;;;;5039934;28;20525;-80